City Of Vicksburg — WDC2660 — position and weather

sailwx.info

Track history (hours):
 
Tides and Currents Weather Stations Pressure Air Temp Water Temp Dewpoint Dewpoint Depression Visibility Wind Speed Wind Dir Waves Ship Positions

City Of Vicksburg

Owner: Kirby Inland Marine LP, Houston, TX. More information available from US FCC via Universal Licensing System and Coast Guard Vessel Documentation Center.

Last reported at 2016-Jun-26 22:33 UTC. Time now 2016-Jun-28 18:49 UTC.
Position N 32°40' W 091°08'.

Length 50 m; draft 2.9 m.

Type: Ship (hazmat cat A). MMSI: 366996120.

Date/timePositionNaut miles runAvg speedWind from/ knotsBaromVisibWave heightAir tempDewpointWater temp
2016-Jun-26 22:33N 32°40' W 091°08'4 3.5
2016-Jun-26 21:33N 32°36' W 091°09'5 4.6
2016-Jun-26 20:33N 32°32' W 091°06'4 4.5
2016-Jun-26 19:34N 32°28' W 091°06'5 4.8
2016-Jun-26 18:34N 32°26' W 091°01'4 3.8
2016-Jun-26 17:34N 32°22' W 091°00'2 2.3
2016-Jun-26 16:34N 32°21' W 090°58'4 3.6
2016-Jun-26 15:33N 32°19' W 090°54'1 1.2
2016-Jun-26 14:33N 32°18' W 090°55'1 0.7
2016-Jun-26 13:33N 32°18' W 090°56'3 3.0
2016-Jun-26 12:33N 32°16' W 090°58'5 4.7
2016-Jun-26 11:34N 32°11' W 090°60'4 4.3
2016-Jun-26 10:34N 32°07' W 091°02'4 4.0
2016-Jun-26 09:33N 32°07' W 091°07'4 4.4
2016-Jun-26 08:33N 32°04' W 091°03'2 1.7
2016-Jun-26 07:33N 32°02' W 091°04'1 0.9
2016-Jun-26 06:34N 32°01' W 091°04'  
2016-Jun-23 21:13N 31°60' W 091°06'6 9.5
2016-Jun-23 20:33N 32°06' W 091°06'6 6.5
2016-Jun-23 19:33N 32°10' W 091°00'9 9.1
2016-Jun-23 18:33N 32°18' W 090°55'0 0.1
2016-Jun-23 17:33N 32°18' W 090°55'0 0.1
2016-Jun-23 16:33N 32°18' W 090°55'0 0.0
2016-Jun-23 15:33N 32°18' W 090°55'0 0.0
2016-Jun-23 14:33N 32°18' W 090°55'0 0.0
2016-Jun-23 13:33N 32°18' W 090°55'2 2.5
2016-Jun-23 12:33N 32°21' W 090°56'9 8.6
2016-Jun-23 11:33N 32°26' W 091°03'1211.5
2016-Jun-23 10:33N 32°37' W 091°09'  
Track history (hours):
 
Tides and Currents Weather Stations Pressure Air Temp Water Temp Dewpoint Dewpoint Depression Visibility Wind Speed Wind Dir Waves Ship Positions

City Of Vicksburg

Owner: Kirby Inland Marine LP, Houston, TX. More information available from US FCC via Universal Licensing System and Coast Guard Vessel Documentation Center.

Last reported at 2016-Jun-26 22:33 UTC. Time now 2016-Jun-28 18:49 UTC.
Position N 32°40' W 091°08'.

Length 50 m; draft 2.9 m.

Type: Ship (hazmat cat A). MMSI: 366996120.

Date/timePositionNaut miles runAvg speedWind from/ knotsBaromVisibWave heightAir tempDewpointWater temp
2016-Jun-26 22:33N 32°40' W 091°08'4 3.5
2016-Jun-26 21:33N 32°36' W 091°09'5 4.6
2016-Jun-26 20:33N 32°32' W 091°06'4 4.5
2016-Jun-26 19:34N 32°28' W 091°06'5 4.8
2016-Jun-26 18:34N 32°26' W 091°01'4 3.8
2016-Jun-26 17:34N 32°22' W 091°00'2 2.3
2016-Jun-26 16:34N 32°21' W 090°58'4 3.6
2016-Jun-26 15:33N 32°19' W 090°54'1 1.2
2016-Jun-26 14:33N 32°18' W 090°55'1 0.7
2016-Jun-26 13:33N 32°18' W 090°56'3 3.0
2016-Jun-26 12:33N 32°16' W 090°58'5 4.7
2016-Jun-26 11:34N 32°11' W 090°60'4 4.3
2016-Jun-26 10:34N 32°07' W 091°02'4 4.0
2016-Jun-26 09:33N 32°07' W 091°07'4 4.4
2016-Jun-26 08:33N 32°04' W 091°03'2 1.7
2016-Jun-26 07:33N 32°02' W 091°04'1 0.9
2016-Jun-26 06:34N 32°01' W 091°04'  
2016-Jun-23 21:13N 31°60' W 091°06'6 9.5
2016-Jun-23 20:33N 32°06' W 091°06'6 6.5
2016-Jun-23 19:33N 32°10' W 091°00'9 9.1
2016-Jun-23 18:33N 32°18' W 090°55'0 0.1
2016-Jun-23 17:33N 32°18' W 090°55'0 0.1
2016-Jun-23 16:33N 32°18' W 090°55'0 0.0
2016-Jun-23 15:33N 32°18' W 090°55'0 0.0
2016-Jun-23 14:33N 32°18' W 090°55'0 0.0
2016-Jun-23 13:33N 32°18' W 090°55'2 2.5
2016-Jun-23 12:33N 32°21' W 090°56'9 8.6
2016-Jun-23 11:33N 32°26' W 091°03'1211.5
2016-Jun-23 10:33N 32°37' W 091°09'  

Dump ship's entire track history